Time;durP1;ratioP1;P1;durP2;ratioP2;P2;SDS_P1;SDS_P2;PMS_P1;PMS_P2;Temp;Humidity;BMP_temperature;BMP_pressure;BME280_temperature;BME280_humidity;BME280_pressure;Samples;Min_cycle;Max_cycle;Signal;HPM_P1;HPM_P2
2022/10/10 00:00:37;;;;;;;11.73;6.13;;;;;;;;;;4963308;28;20022;-82
2022/10/10 00:03:03;;;;;;;13.13;7.13;;;;;;;;;;4980973;28;20472;-81
2022/10/10 00:05:29;;;;;;;14.63;6.78;;;;;;;;;;4963462;28;20030;-81
2022/10/10 00:07:55;;;;;;;11.90;6.60;;;;;;;;;;4963164;28;20027;-81
2022/10/10 00:10:21;;;;;;;10.85;6.32;;;;;;;;;;4963861;28;20035;-82
2022/10/10 00:12:48;;;;;;;10.70;6.13;;;;;;;;;;4963310;28;20038;-81
2022/10/10 00:15:14;;;;;;;15.60;6.20;;;;;;;;;;4963344;28;20062;-81
2022/10/10 00:17:42;;;;;;;11.07;6.05;;;;;;;;;;4963210;28;20027;-79
2022/10/10 00:20:09;;;;;;;10.45;6.18;;;;;;;;;;4963020;28;20027;-79
2022/10/10 00:22:35;;;;;;;13.82;6.32;;;;;;;;;;4963266;28;20045;-81
2022/10/10 00:25:01;;;;;;;10.63;6.47;;;;;;;;;;4963233;28;20026;-77
2022/10/10 00:27:27;;;;;;;11.35;5.90;;;;;;;;;;4963212;28;20089;-80
2022/10/10 00:29:53;;;;;;;9.80;6.10;;;;;;;;;;4963110;28;20058;-81
2022/10/10 00:32:19;;;;;;;10.60;6.78;;;;;;;;;;4963217;28;20039;-81
2022/10/10 00:34:46;;;;;;;16.35;8.57;;;;;;;;;;4980346;28;20046;-82
2022/10/10 00:37:12;;;;;;;16.13;7.13;;;;;;;;;;4963112;28;20078;-77
2022/10/10 00:39:38;;;;;;;13.30;7.15;;;;;;;;;;4962905;28;20026;-79
2022/10/10 00:42:04;;;;;;;14.40;8.23;;;;;;;;;;4962993;28;20440;-81
2022/10/10 00:44:30;;;;;;;12.57;7.47;;;;;;;;;;4963048;28;20027;-81
2022/10/10 00:46:57;;;;;;;14.18;7.38;;;;;;;;;;4980454;28;20081;-81
2022/10/10 00:49:24;;;;;;;14.63;8.40;;;;;;;;;;4962791;28;20158;-82
2022/10/10 00:51:52;;;;;;;12.98;7.22;;;;;;;;;;4962909;28;20046;-82
2022/10/10 00:54:19;;;;;;;14.20;7.60;;;;;;;;;;4962846;28;20384;-81
2022/10/10 00:56:55;;;;;;;12.35;7.80;;;;;;;;;;4962961;28;20026;-81
2022/10/10 00:59:21;;;;;;;11.45;6.45;;;;;;;;;;4963011;28;20041;-81
2022/10/10 01:01:47;;;;;;;10.23;5.95;;;;;;;;;;4980335;28;20026;-81
2022/10/10 01:04:28;;;;;;;12.90;7.43;;;;;;;;;;4961943;28;20114;-80
2022/10/10 01:06:54;;;;;;;12.65;6.88;;;;;;;;;;4959898;28;20034;-81
2022/10/10 01:09:20;;;;;;;12.75;7.40;;;;;;;;;;4959843;28;20543;-81
2022/10/10 01:11:51;;;;;;;12.90;6.63;;;;;;;;;;4977000;28;20480;-81
2022/10/10 01:14:26;;;;;;;14.02;7.20;;;;;;;;;;4959463;28;20034;-79
2022/10/10 01:16:55;;;;;;;12.38;6.93;;;;;;;;;;4959731;28;20480;-81
2022/10/10 01:19:48;;;;;;;9.38;6.68;;;;;;;;;;4959837;28;20420;-81
2022/10/10 01:22:23;;;;;;;13.23;7.53;;;;;;;;;;4944647;28;20050;-79
2022/10/10 01:24:52;;;;;;;12.27;7.70;;;;;;;;;;4959663;28;20034;-81
2022/10/10 01:27:21;;;;;;;11.15;6.82;;;;;;;;;;4959465;28;20038;-80
2022/10/10 01:29:51;;;;;;;11.45;7.85;;;;;;;;;;4959588;28;20022;-81
2022/10/10 01:32:28;;;;;;;8.73;6.82;;;;;;;;;;4959234;28;20039;-81
2022/10/10 01:35:07;;;;;;;9.77;6.63;;;;;;;;;;4959337;28;20055;-81
2022/10/10 01:37:33;;;;;;;11.00;7.28;;;;;;;;;;4959332;28;20035;-81
2022/10/10 01:40:02;;;;;;;7.80;5.90;;;;;;;;;;4959337;28;20058;-82
2022/10/10 01:42:31;;;;;;;12.55;7.40;;;;;;;;;;4959465;28;20039;-81
2022/10/10 01:44:57;;;;;;;9.00;5.85;;;;;;;;;;4959131;28;20034;-81
2022/10/10 01:47:23;;;;;;;9.50;6.53;;;;;;;;;;4959206;28;20066;-81
2022/10/10 01:49:52;;;;;;;12.30;6.93;;;;;;;;;;4976577;28;20023;-81
2022/10/10 01:52:24;;;;;;;9.77;6.00;;;;;;;;;;4959057;28;20430;-82
2022/10/10 01:55:09;;;;;;;11.65;7.00;;;;;;;;;;4959045;28;20030;-81
2022/10/10 01:57:41;;;;;;;9.65;6.75;;;;;;;;;;4959002;28;20471;-81
2022/10/10 02:00:08;;;;;;;10.68;7.43;;;;;;;;;;4958967;28;20030;-81
2022/10/10 02:02:53;;;;;;;9.75;6.70;;;;;;;;;;4958871;28;20062;-81
2022/10/10 02:05:22;;;;;;;10.95;6.85;;;;;;;;;;4958927;28;20097;-77
2022/10/10 02:07:49;;;;;;;9.93;7.07;;;;;;;;;;4958836;28;20022;-81
2022/10/10 02:10:18;;;;;;;13.80;6.72;;;;;;;;;;4958720;28;20027;-80
2022/10/10 02:12:45;;;;;;;14.68;7.63;;;;;;;;;;4958686;28;20078;-81
2022/10/10 02:15:13;;;;;;;10.30;6.53;;;;;;;;;;4976106;28;20069;-80
2022/10/10 02:17:40;;;;;;;9.57;6.38;;;;;;;;;;4957395;28;20037;-80
2022/10/10 02:20:08;;;;;;;9.35;6.68;;;;;;;;;;4975987;28;20034;-78
2022/10/10 02:22:34;;;;;;;10.98;7.32;;;;;;;;;;4958470;28;20392;-81
2022/10/10 02:25:01;;;;;;;14.35;7.35;;;;;;;;;;4958251;28;20427;-81
2022/10/10 02:27:42;;;;;;;11.77;6.65;;;;;;;;;;4958380;28;20031;-82
2022/10/10 02:30:09;;;;;;;9.48;6.88;;;;;;;;;;4958411;28;20027;-82
2022/10/10 02:32:41;;;;;;;10.48;7.68;;;;;;;;;;4958020;28;20035;-81
2022/10/10 02:35:09;;;;;;;11.55;8.05;;;;;;;;;;4958110;28;20138;-80
2022/10/10 02:37:39;;;;;;;11.40;7.72;;;;;;;;;;4958236;28;20097;-81
2022/10/10 02:40:07;;;;;;;10.82;7.10;;;;;;;;;;4958315;28;20106;-82
2022/10/10 02:42:34;;;;;;;13.30;7.07;;;;;;;;;;4958186;28;20027;-81
2022/10/10 02:45:00;;;;;;;13.70;8.63;;;;;;;;;;4975046;28;20432;-81
2022/10/10 02:47:26;;;;;;;11.70;7.53;;;;;;;;;;4975356;28;20022;-81
2022/10/10 02:49:52;;;;;;;13.25;7.60;;;;;;;;;;4958000;28;20023;-81
2022/10/10 02:52:18;;;;;;;12.27;8.25;;;;;;;;;;4975227;28;20089;-81
2022/10/10 02:54:44;;;;;;;16.15;9.88;;;;;;;;;;4975108;28;20034;-80
2022/10/10 02:57:11;;;;;;;20.65;9.93;;;;;;;;;;4975286;28;20057;-77
2022/10/10 02:59:37;;;;;;;12.43;7.88;;;;;;;;;;4975175;28;20100;-77
2022/10/10 03:02:03;;;;;;;12.38;8.77;;;;;;;;;;4957840;28;20114;-81
2022/10/10 03:04:29;;;;;;;12.65;7.63;;;;;;;;;;4957780;28;20065;-81
2022/10/10 03:06:55;;;;;;;10.70;7.60;;;;;;;;;;4957617;28;20027;-81
2022/10/10 03:09:21;;;;;;;15.80;8.82;;;;;;;;;;4957459;28;20074;-81
2022/10/10 03:11:47;;;;;;;16.58;9.70;;;;;;;;;;4957409;28;20416;-81
2022/10/10 03:14:14;;;;;;;12.23;8.40;;;;;;;;;;4957505;28;20200;-81
2022/10/10 03:16:40;;;;;;;13.82;7.78;;;;;;;;;;4974817;28;20081;-81
2022/10/10 03:19:07;;;;;;;12.25;8.85;;;;;;;;;;4957299;28;20030;-81
2022/10/10 03:21:34;;;;;;;12.63;8.23;;;;;;;;;;4957453;28;20435;-81
2022/10/10 03:24:00;;;;;;;13.13;7.78;;;;;;;;;;4974789;28;20113;-77
2022/10/10 03:26:26;;;;;;;11.95;8.15;;;;;;;;;;4957393;28;20023;-81
2022/10/10 03:28:52;;;;;;;11.43;8.15;;;;;;;;;;4956821;28;20890;-81
2022/10/10 03:31:18;;;;;;;11.90;7.55;;;;;;;;;;4957292;28;20039;-81
2022/10/10 03:33:45;;;;;;;12.48;8.40;;;;;;;;;;4957312;28;20030;-77
2022/10/10 03:36:11;;;;;;;11.27;8.23;;;;;;;;;;4957077;28;20050;-81
2022/10/10 03:38:38;;;;;;;13.85;8.52;;;;;;;;;;4958096;28;20428;-81
2022/10/10 03:41:04;;;;;;;12.43;9.00;;;;;;;;;;4974350;28;20392;-80
2022/10/10 03:43:30;;;;;;;11.48;9.05;;;;;;;;;;4957156;28;20041;-81
2022/10/10 03:45:57;;;;;;;15.38;8.45;;;;;;;;;;4957021;28;20027;-81
2022/10/10 03:48:23;;;;;;;14.15;9.35;;;;;;;;;;4957087;28;20121;-80
2022/10/10 03:50:49;;;;;;;13.30;9.05;;;;;;;;;;4956709;28;20465;-79
2022/10/10 03:53:15;;;;;;;16.52;8.35;;;;;;;;;;4974223;28;20113;-79
2022/10/10 03:55:42;;;;;;;10.75;7.40;;;;;;;;;;4956938;28;20105;-79
2022/10/10 03:58:09;;;;;;;11.70;8.30;;;;;;;;;;4956968;28;20031;-80
2022/10/10 04:00:35;;;;;;;13.80;9.18;;;;;;;;;;4957000;28;20381;-76
2022/10/10 04:03:05;;;;;;;13.13;8.52;;;;;;;;;;4956887;28;20023;-79
2022/10/10 04:05:38;;;;;;;10.98;7.55;;;;;;;;;;4956676;28;20118;-76
2022/10/10 04:08:05;;;;;;;12.48;7.60;;;;;;;;;;4956989;28;20118;-75
2022/10/10 04:10:31;;;;;;;16.75;8.32;;;;;;;;;;4956821;28;20042;-77
2022/10/10 04:12:57;;;;;;;12.60;7.80;;;;;;;;;;4956729;28;20043;-75
2022/10/10 04:15:24;;;;;;;10.57;8.15;;;;;;;;;;4956548;28;20031;-78
2022/10/10 04:17:50;;;;;;;14.90;8.23;;;;;;;;;;4956626;28;20077;-79
2022/10/10 04:20:17;;;;;;;12.90;7.65;;;;;;;;;;4956664;28;20030;-79
2022/10/10 04:22:43;;;;;;;10.77;6.55;;;;;;;;;;4956403;28;20074;-81
2022/10/10 04:25:10;;;;;;;12.73;7.40;;;;;;;;;;4974231;28;20365;-80
2022/10/10 04:27:36;;;;;;;10.18;7.88;;;;;;;;;;4956849;28;20499;-75
2022/10/10 04:30:03;;;;;;;12.52;7.50;;;;;;;;;;4956761;28;20027;-75
2022/10/10 04:32:29;;;;;;;13.35;8.73;;;;;;;;;;4956662;28;20093;-80
2022/10/10 04:34:55;;;;;;;14.05;8.80;;;;;;;;;;4956431;28;20038;-75
2022/10/10 04:37:22;;;;;;;12.07;7.32;;;;;;;;;;4956499;28;20480;-77
2022/10/10 04:39:48;;;;;;;10.88;6.97;;;;;;;;;;4953667;28;20061;-78
2022/10/10 04:42:14;;;;;;;12.75;8.40;;;;;;;;;;4950067;28;20439;-77
2022/10/10 04:44:41;;;;;;;13.45;8.45;;;;;;;;;;4949252;28;20042;-74
2022/10/10 04:47:07;;;;;;;14.02;7.57;;;;;;;;;;4950836;28;20110;-75
2022/10/10 04:49:33;;;;;;;11.65;7.78;;;;;;;;;;4949709;28;20038;-75
2022/10/10 04:51:59;;;;;;;17.20;8.50;;;;;;;;;;4947057;29;20042;-80
2022/10/10 04:54:25;;;;;;;16.33;9.18;;;;;;;;;;4940777;29;20019;-78
2022/10/10 04:56:51;;;;;;;14.40;8.27;;;;;;;;;;4958120;29;20039;-77
2022/10/10 04:59:17;;;;;;;18.73;8.85;;;;;;;;;;4940626;29;20027;-76
2022/10/10 05:01:43;;;;;;;14.35;8.68;;;;;;;;;;4932924;29;20059;-75
2022/10/10 05:04:11;;;;;;;11.82;7.40;;;;;;;;;;4923914;29;20110;-75
2022/10/10 05:06:37;;;;;;;17.17;7.70;;;;;;;;;;4938510;29;20027;-77
2022/10/10 05:09:03;;;;;;;15.75;8.85;;;;;;;;;;4921442;29;20473;-77
2022/10/10 05:11:29;;;;;;;13.15;7.88;;;;;;;;;;4921318;29;20036;-75
2022/10/10 05:13:56;;;;;;;13.38;8.10;;;;;;;;;;4921418;29;20130;-74
2022/10/10 05:16:22;;;;;;;13.48;8.05;;;;;;;;;;4921042;29;20031;-75
2022/10/10 05:18:48;;;;;;;13.68;7.90;;;;;;;;;;4924901;29;20028;-76
2022/10/10 05:21:14;;;;;;;14.32;8.43;;;;;;;;;;4939993;29;20543;-76
2022/10/10 05:23:40;;;;;;;19.17;7.40;;;;;;;;;;4963717;28;20388;-77
2022/10/10 05:26:07;;;;;;;15.30;7.47;;;;;;;;;;4948753;28;20046;-77
2022/10/10 05:28:36;;;;;;;15.75;8.57;;;;;;;;;;4965493;28;20019;-76
2022/10/10 05:31:03;;;;;;;15.27;7.57;;;;;;;;;;4939704;29;20065;-75
2022/10/10 05:33:29;;;;;;;18.13;8.27;;;;;;;;;;4957326;29;20392;-75
2022/10/10 05:36:05;;;;;;;18.70;7.85;;;;;;;;;;4939729;29;20058;-75
2022/10/10 05:38:32;;;;;;;10.90;7.28;;;;;;;;;;4940027;29;20082;-77
2022/10/10 05:40:58;;;;;;;15.38;7.20;;;;;;;;;;4939788;29;20441;-78
2022/10/10 05:43:24;;;;;;;12.65;6.90;;;;;;;;;;4956845;29;20028;-76
2022/10/10 05:45:50;;;;;;;10.45;5.82;;;;;;;;;;4956962;29;20031;-77
2022/10/10 05:48:17;;;;;;;9.85;5.88;;;;;;;;;;4939580;29;20066;-78
2022/10/10 05:50:51;;;;;;;12.85;5.88;;;;;;;;;;4939640;29;20032;-78
2022/10/10 05:53:18;;;;;;;11.18;6.28;;;;;;;;;;4939402;29;20042;-75
2022/10/10 05:55:44;;;;;;;11.25;6.55;;;;;;;;;;4932610;29;20108;-76
2022/10/10 05:58:12;;;;;;;14.07;6.15;;;;;;;;;;4920438;29;20035;-77
2022/10/10 06:00:39;;;;;;;9.75;4.57;;;;;;;;;;4925544;29;20413;-76
2022/10/10 06:03:05;;;;;;;12.77;4.97;;;;;;;;;;4939305;29;20035;-79
2022/10/10 06:05:31;;;;;;;8.32;5.28;;;;;;;;;;4939436;29;20028;-76
2022/10/10 06:07:57;;;;;;;10.60;4.35;;;;;;;;;;4956526;29;20477;-78
2022/10/10 06:10:23;;;;;;;10.35;4.35;;;;;;;;;;4956632;29;20056;-77
2022/10/10 06:12:49;;;;;;;9.80;4.82;;;;;;;;;;4956347;29;20046;-76
2022/10/10 06:15:15;;;;;;;8.57;3.80;;;;;;;;;;4939136;29;20023;-76
2022/10/10 06:17:42;;;;;;;8.15;3.97;;;;;;;;;;4939151;29;20062;-77
2022/10/10 06:20:08;;;;;;;6.43;4.15;;;;;;;;;;4939239;29;20114;-76
2022/10/10 06:22:34;;;;;;;8.07;4.35;;;;;;;;;;4942696;28;20031;-77
2022/10/10 06:25:00;;;;;;;9.20;4.32;;;;;;;;;;4942699;29;20023;-77
2022/10/10 06:27:27;;;;;;;13.48;4.20;;;;;;;;;;4939097;29;20034;-78
2022/10/10 06:30:18;;;;;;;12.07;5.22;;;;;;;;;;4946408;28;20027;-93
2022/10/10 06:32:44;;;;;;;14.27;8.13;;;;;;;;;;4937617;29;20537;-96
2022/10/10 06:35:13;;;;;;;10.20;6.15;;;;;;;;;;4949121;28;20130;-94
2022/10/10 06:37:39;;;;;;;8.43;3.30;;;;;;;;;;4946643;29;20500;-94
2022/10/10 06:40:06;;;;;;;6.97;3.83;;;;;;;;;;4925293;29;20031;-95
2022/10/10 06:45:36;;;;;;;9.27;3.53;;;;;;;;;;4958056;29;20046;-94
2022/10/10 06:48:03;;;;;;;6.80;3.20;;;;;;;;;;4940154;29;20086;-96
2022/10/10 06:50:49;;;;;;;8.45;2.97;;;;;;;;;;4950641;29;20058;-93
2022/10/10 06:53:30;;;;;;;6.78;3.10;;;;;;;;;;4970943;29;20031;-91
2022/10/10 06:56:24;;;;;;;6.95;3.42;;;;;;;;;;4952069;29;20031;-95
2022/10/10 06:59:10;;;;;;;8.38;3.08;;;;;;;;;;4910393;29;20493;-94
2022/10/10 07:01:42;;;;;;;8.20;3.05;;;;;;;;;;4946249;29;20035;-93
2022/10/10 07:04:09;;;;;;;7.28;4.13;;;;;;;;;;4947041;29;20066;-91
2022/10/10 07:06:40;;;;;;;6.07;3.40;;;;;;;;;;4946073;29;20038;-91
2022/10/10 07:09:19;;;;;;;8.77;4.10;;;;;;;;;;4944957;29;20028;-94
2022/10/10 07:12:09;;;;;;;12.82;7.57;;;;;;;;;;5003448;23;20038;-90
2022/10/10 07:14:35;;;;;;;12.32;7.18;;;;;;;;;;4959938;28;20035;-91
2022/10/10 07:17:02;;;;;;;19.67;6.78;;;;;;;;;;4962517;28;20030;-92
2022/10/10 07:20:00;;;;;;;16.90;8.13;;;;;;;;;;4960421;28;20023;-91
2022/10/10 07:22:47;;;;;;;8.95;3.97;;;;;;;;;;4949664;29;20083;-89
2022/10/10 07:25:41;;;;;;;12.35;5.18;;;;;;;;;;4936615;29;20091;-95
2022/10/10 07:28:16;;;;;;;7.18;3.28;;;;;;;;;;4950139;29;20032;-96
2022/10/10 07:31:12;;;;;;;7.50;3.13;;;;;;;;;;4935144;28;20028;-92
2022/10/10 07:37:22;;;;;;;8.23;3.75;;;;;;;;;;4878042;29;20161;-91
2022/10/10 07:40:09;;;;;;;9.40;3.90;;;;;;;;;;4864998;29;20034;-96
2022/10/10 07:42:49;;;;;;;10.90;3.47;;;;;;;;;;4864904;29;20078;-96
2022/10/10 07:45:16;;;;;;;10.30;4.03;;;;;;;;;;4865646;29;20042;-93
2022/10/10 07:48:25;;;;;;;9.05;3.33;;;;;;;;;;4866578;29;20033;-93
2022/10/10 07:51:14;;;;;;;7.47;3.97;;;;;;;;;;4854464;29;20029;-96
2022/10/10 07:54:13;;;;;;;8.07;3.75;;;;;;;;;;4884019;29;20033;-94
2022/10/10 07:56:43;;;;;;;7.78;3.28;;;;;;;;;;4880738;29;20411;-96
2022/10/10 07:59:44;;;;;;;9.15;3.88;;;;;;;;;;4875671;29;20116;-95
2022/10/10 08:02:10;;;;;;;8.18;4.75;;;;;;;;;;4866644;29;20431;-94
2022/10/10 08:04:38;;;;;;;8.05;4.45;;;;;;;;;;4887803;29;20028;-95
2022/10/10 08:07:07;;;;;;;9.13;5.78;;;;;;;;;;4907597;29;20042;-96
2022/10/10 08:09:56;;;;;;;9.45;6.10;;;;;;;;;;4893009;29;20108;-96
2022/10/10 08:12:49;;;;;;;7.82;3.45;;;;;;;;;;4936730;29;20060;-89
2022/10/10 08:18:28;;;;;;;;;;;;;;;;;;4900749;29;20102;-91
2022/10/10 08:27:27;;;;;;;6.73;3.73;;;;;;;;;;4995592;23;20081;-89
2022/10/10 08:30:12;;;;;;;7.50;3.10;;;;;;;;;;5118769;23;20074;-91
2022/10/10 08:32:50;;;;;;;7.00;2.80;;;;;;;;;;4940650;29;20290;-96
2022/10/10 08:35:25;;;;;;;7.85;2.85;;;;;;;;;;4927395;29;20034;-96
2022/10/10 08:37:54;;;;;;;4.70;2.75;;;;;;;;;;4923293;29;20130;-94
2022/10/10 08:40:21;;;;;;;6.32;2.65;;;;;;;;;;4923374;29;20046;-96
2022/10/10 08:42:50;;;;;;;6.20;2.80;;;;;;;;;;4924714;29;20042;-95
2022/10/10 08:45:19;;;;;;;6.22;2.45;;;;;;;;;;4923684;29;20024;-95
2022/10/10 08:47:45;;;;;;;5.07;2.72;;;;;;;;;;4923766;29;20046;-96
2022/10/10 08:50:11;;;;;;;6.63;3.05;;;;;;;;;;4923847;29;20020;-95
2022/10/10 08:52:49;;;;;;;5.13;2.28;;;;;;;;;;4923889;29;20035;-96
2022/10/10 08:55:52;;;;;;;4.47;2.10;;;;;;;;;;4924351;29;20388;-95
2022/10/10 09:01:58;;;;;;;6.05;2.95;;;;;;;;;;4864244;29;20037;-96
2022/10/10 09:04:32;;;;;;;6.10;2.45;;;;;;;;;;4850831;29;20128;-95
2022/10/10 09:07:04;;;;;;;7.78;3.88;;;;;;;;;;4867074;29;20041;-96
2022/10/10 09:09:38;;;;;;;7.57;2.88;;;;;;;;;;4855985;29;20057;-96
2022/10/10 09:12:13;;;;;;;7.65;3.40;;;;;;;;;;4849770;29;20045;-96
2022/10/10 09:15:05;;;;;;;6.65;3.08;;;;;;;;;;4848399;29;20078;-94
2022/10/10 09:17:44;;;;;;;8.90;4.18;;;;;;;;;;4886032;29;20036;-94
2022/10/10 09:20:28;;;;;;;7.30;3.92;;;;;;;;;;4924444;29;20027;-93
2022/10/10 09:22:57;;;;;;;9.30;3.53;;;;;;;;;;4938961;29;20437;-94
2022/10/10 09:25:27;;;;;;;6.35;2.92;;;;;;;;;;4940952;28;20028;-95
2022/10/10 09:28:19;;;;;;;14.38;3.83;;;;;;;;;;4941826;29;20027;-95
2022/10/10 09:30:49;;;;;;;12.15;3.45;;;;;;;;;;4907748;29;20110;-96
2022/10/10 09:33:31;;;;;;;6.70;2.85;;;;;;;;;;4927956;29;20042;-95
2022/10/10 09:35:58;;;;;;;5.68;2.78;;;;;;;;;;4941871;29;20487;-95
2022/10/10 09:41:34;;;;;;;5.13;2.72;;;;;;;;;;4959855;29;20034;-96
2022/10/10 09:44:23;;;;;;;5.53;2.95;;;;;;;;;;4960407;29;20035;-95
2022/10/10 09:46:55;;;;;;;5.45;2.20;;;;;;;;;;4944152;29;20034;-96
2022/10/10 09:49:22;;;;;;;7.40;3.08;;;;;;;;;;4958647;29;20106;-96
2022/10/10 09:51:52;;;;;;;6.03;2.80;;;;;;;;;;4968772;29;20111;-96
2022/10/10 09:54:25;;;;;;;5.57;2.50;;;;;;;;;;4945741;28;20015;-94
2022/10/10 09:56:59;;;;;;;6.68;2.40;;;;;;;;;;4955911;29;20393;-95
2022/10/10 09:59:44;;;;;;;5.82;2.75;;;;;;;;;;4939678;29;20122;-93
2022/10/10 10:05:54;;;;;;;7.63;2.50;;;;;;;;;;4884326;29;20052;-95
2022/10/10 10:27:39;;;;;;;6.83;2.73;;;;;;;;;;4903966;29;20085;-95
2022/10/10 10:30:22;;;;;;;4.47;2.25;;;;;;;;;;4843433;29;20034;-95
2022/10/10 10:33:17;;;;;;;5.20;2.45;;;;;;;;;;4843668;29;20110;-95
2022/10/10 10:42:16;;;;;;;5.13;2.35;;;;;;;;;;4957617;29;20039;-96
2022/10/10 10:45:12;;;;;;;6.13;3.08;;;;;;;;;;4939445;29;20031;-95
2022/10/10 10:48:12;;;;;;;;;;;;;;;;;;;;;
2022/10/10 10:51:06;;;;;;;4.72;2.20;;;;;;;;;;4896293;29;20045;-96
2022/10/10 11:22:41;;;;;;;5.20;2.05;;;;;;;;;;5008383;23;20043;-93
2022/10/10 11:27:54;;;;;;;4.07;1.90;;;;;;;;;;5011685;23;20051;-96
2022/10/10 11:33:33;;;;;;;5.18;2.20;;;;;;;;;;4976714;28;20027;-96
2022/10/10 11:36:37;;;;;;;6.75;1.83;;;;;;;;;;4978713;28;20075;-90
2022/10/10 11:42:18;;;;;;;6.68;2.45;;;;;;;;;;4978975;28;20047;-88
2022/10/10 11:45:40;;;;;;;7.20;2.08;;;;;;;;;;4944522;28;20346;-91
2022/10/10 11:48:40;;;;;;;4.50;1.95;;;;;;;;;;4975209;28;20042;-95
2022/10/10 12:02:57;;;;;;;5.88;2.00;;;;;;;;;;4902396;29;20055;-91
2022/10/10 12:06:00;;;;;;;3.65;1.92;;;;;;;;;;4902399;29;20049;-94
2022/10/10 12:08:38;;;;;;;4.18;2.47;;;;;;;;;;4952497;29;20034;-95
2022/10/10 12:11:33;;;;;;;6.85;2.15;;;;;;;;;;4949246;28;20027;-90
2022/10/10 12:17:04;;;;;;;4.55;2.33;;;;;;;;;;5011877;23;20055;-93
2022/10/10 12:19:50;;;;;;;4.65;2.63;;;;;;;;;;4965064;29;20193;-94
2022/10/10 12:22:39;;;;;;;6.15;2.55;;;;;;;;;;4978453;28;20016;-92
2022/10/10 12:25:28;;;;;;;4.85;2.90;;;;;;;;;;5045370;23;20504;-94
2022/10/10 12:28:49;;;;;;;7.30;2.78;;;;;;;;;;4977358;28;20026;-93
2022/10/10 12:32:05;;;;;;;9.63;2.90;;;;;;;;;;4935406;29;20021;-96
2022/10/10 12:35:27;;;;;;;4.82;2.63;;;;;;;;;;4921537;29;20036;-96
2022/10/10 12:38:06;;;;;;;6.35;2.75;;;;;;;;;;4947551;29;20062;-96
2022/10/10 12:40:54;;;;;;;6.32;2.25;;;;;;;;;;4944257;29;20027;-97
2022/10/10 12:44:05;;;;;;;7.78;2.60;;;;;;;;;;4967421;29;20020;-96
2022/10/10 12:47:02;;;;;;;4.32;2.40;;;;;;;;;;4934366;29;20035;-96
2022/10/10 12:49:58;;;;;;;5.22;2.88;;;;;;;;;;4953742;29;20123;-91
2022/10/10 12:55:49;;;;;;;4.77;2.87;;;;;;;;;;4940681;29;20062;-96
2022/10/10 12:58:35;;;;;;;6.13;2.83;;;;;;;;;;4940483;29;20259;-91
2022/10/10 13:01:28;;;;;;;6.80;2.85;;;;;;;;;;4940505;29;20130;-93
2022/10/10 13:07:01;;;;;;;6.45;2.80;;;;;;;;;;4911768;28;20037;-94
2022/10/10 13:13:22;;;;;;;7.07;2.63;;;;;;;;;;4900752;29;20058;-96
2022/10/10 13:19:19;;;;;;;5.32;2.47;;;;;;;;;;4851841;29;20033;-94
2022/10/10 13:21:49;;;;;;;6.55;2.97;;;;;;;;;;4867673;29;20399;-96
2022/10/10 13:24:40;;;;;;;6.65;3.03;;;;;;;;;;4936863;29;20047;-95
2022/10/10 13:27:31;;;;;;;4.80;2.22;;;;;;;;;;4911506;29;20510;-93
2022/10/10 13:30:04;;;;;;;7.38;2.33;;;;;;;;;;4943387;29;20074;-95
2022/10/10 13:32:36;;;;;;;4.55;2.25;;;;;;;;;;4942640;29;20496;-95
2022/10/10 13:35:05;;;;;;;7.78;2.10;;;;;;;;;;4926818;29;20035;-94
2022/10/10 13:37:49;;;;;;;7.07;2.67;;;;;;;;;;4943979;29;20405;-94
2022/10/10 13:40:16;;;;;;;6.80;2.40;;;;;;;;;;4921088;29;20497;-94
2022/10/10 13:46:27;;;;;;;;;;;;;;;;;;;;;
2022/10/10 13:48:58;;;;;;;16.63;10.45;;;;;;;;;;4922129;29;20123;-96
2022/10/10 13:51:44;;;;;;;6.30;4.30;;;;;;;;;;4902654;29;20060;-93
2022/10/10 13:54:32;;;;;;;9.57;5.80;;;;;;;;;;4907282;29;20032;-91
2022/10/10 13:57:25;;;;;;;5.10;2.50;;;;;;;;;;4909836;29;20055;-96
2022/10/10 14:00:08;;;;;;;6.65;3.03;;;;;;;;;;4897259;29;20036;-92
2022/10/10 14:02:58;;;;;;;7.25;2.67;;;;;;;;;;4902295;29;20679;-93
2022/10/10 14:05:31;;;;;;;7.07;2.20;;;;;;;;;;4906751;29;20060;-93
2022/10/10 14:08:13;;;;;;;8.20;2.72;;;;;;;;;;4898038;29;20078;-94
2022/10/10 14:10:54;;;;;;;6.85;2.60;;;;;;;;;;4911859;29;20036;-95
2022/10/10 14:13:24;;;;;;;8.68;2.85;;;;;;;;;;4923257;29;20035;-93
2022/10/10 14:16:00;;;;;;;12.20;3.25;;;;;;;;;;4919358;29;20483;-92
2022/10/10 14:18:27;;;;;;;6.25;2.78;;;;;;;;;;4937073;29;20040;-90
2022/10/10 14:21:08;;;;;;;6.75;3.33;;;;;;;;;;4924644;29;20040;-94
2022/10/10 14:24:02;;;;;;;6.50;3.22;;;;;;;;;;4933438;29;20031;-93
2022/10/10 14:26:34;;;;;;;5.35;3.42;;;;;;;;;;4942314;29;20636;-92
2022/10/10 14:32:01;;;;;;;8.40;3.85;;;;;;;;;;4937008;29;20036;-96
2022/10/10 14:34:53;;;;;;;8.35;4.72;;;;;;;;;;5145888;23;20026;-95
2022/10/10 14:37:41;;;;;;;14.75;6.97;;;;;;;;;;4941438;29;20044;-92
2022/10/10 14:40:26;;;;;;;5.85;3.78;;;;;;;;;;4919009;29;20076;-93
2022/10/10 14:43:38;;;;;;;8.95;3.33;;;;;;;;;;4910108;29;20033;-93
2022/10/10 14:46:15;;;;;;;5.97;3.40;;;;;;;;;;4950327;23;20078;-91
2022/10/10 14:48:55;;;;;;;7.95;3.85;;;;;;;;;;4977329;28;20023;-91
2022/10/10 14:51:27;;;;;;;7.38;4.10;;;;;;;;;;4943305;29;20445;-93
2022/10/10 14:53:53;;;;;;;5.38;3.55;;;;;;;;;;4943123;29;20035;-91
2022/10/10 14:56:53;;;;;;;6.85;3.03;;;;;;;;;;4952571;29;20081;-95
2022/10/10 14:59:42;;;;;;;5.95;2.80;;;;;;;;;;4947297;29;20038;-92
2022/10/10 15:02:37;;;;;;;7.63;3.95;;;;;;;;;;4937494;29;20046;-95
2022/10/10 15:07:52;;;;;;;8.55;3.20;;;;;;;;;;4959856;29;20026;-92
2022/10/10 15:10:34;;;;;;;7.65;3.72;;;;;;;;;;4940604;29;20039;-92
2022/10/10 15:13:06;;;;;;;7.93;4.00;;;;;;;;;;4940764;29;20036;-94
2022/10/10 15:15:32;;;;;;;8.27;5.15;;;;;;;;;;4941387;29;20392;-94
2022/10/10 15:18:01;;;;;;;6.22;3.80;;;;;;;;;;4955548;29;20031;-94
2022/10/10 15:20:40;;;;;;;6.60;4.78;;;;;;;;;;4942980;29;20059;-94
2022/10/10 15:23:20;;;;;;;7.78;4.70;;;;;;;;;;4961749;28;20050;-95
2022/10/10 15:25:52;;;;;;;7.32;3.90;;;;;;;;;;4941011;29;20082;-95
2022/10/10 15:28:31;;;;;;;6.15;3.13;;;;;;;;;;4927361;29;20063;-94
2022/10/10 15:31:03;;;;;;;7.55;3.25;;;;;;;;;;4941474;29;20102;-92
2022/10/10 15:34:00;;;;;;;6.00;2.92;;;;;;;;;;4940665;28;20038;-95
2022/10/10 15:36:27;;;;;;;6.35;2.70;;;;;;;;;;4949001;28;20077;-94
2022/10/10 15:39:32;;;;;;;6.28;3.05;;;;;;;;;;4961861;28;20079;-93
2022/10/10 15:41:56;;;;;;;8.23;3.40;;;;;;;;;;4963315;28;20034;-92
2022/10/10 15:44:35;;;;;;;5.53;3.00;;;;;;;;;;4963028;28;20034;-96
2022/10/10 15:47:01;;;;;;;9.18;3.08;;;;;;;;;;4962358;28;20061;-94
2022/10/10 15:54:38;;;;;;;7.45;2.75;;;;;;;;;;5228741;23;20077;-92
2022/10/10 16:00:03;;;;;;;5.22;2.83;;;;;;;;;;5458570;23;20048;-94
2022/10/10 16:05:27;;;;;;;8.75;3.50;;;;;;;;;;5737796;23;19955;-92
2022/10/10 16:07:59;;;;;;;13.13;5.00;;;;;;;;;;4926360;29;20123;-95
2022/10/10 16:10:39;;;;;;;8.13;4.00;;;;;;;;;;4922414;29;20047;-96
2022/10/10 16:16:11;;;;;;;13.68;5.20;;;;;;;;;;4942137;28;20107;-94
2022/10/10 16:21:52;;;;;;;9.48;3.92;;;;;;;;;;4904653;29;20032;-93
2022/10/10 16:24:49;;;;;;;9.13;4.40;;;;;;;;;;4903687;29;20118;-93
2022/10/10 16:30:49;;;;;;;11.80;7.53;;;;;;;;;;4921051;29;20064;-93
2022/10/10 16:33:15;;;;;;;12.77;7.75;;;;;;;;;;4906665;29;20063;-82
2022/10/10 16:35:47;;;;;;;13.20;6.57;;;;;;;;;;4945894;28;20046;-85
2022/10/10 16:38:13;;;;;;;9.32;4.70;;;;;;;;;;4945142;29;20123;-82
2022/10/10 16:40:39;;;;;;;7.63;4.10;;;;;;;;;;4923024;29;20083;-79
2022/10/10 16:43:05;;;;;;;8.32;4.15;;;;;;;;;;4923058;29;20042;-81
2022/10/10 16:45:31;;;;;;;6.70;4.88;;;;;;;;;;4923554;29;20036;-76
2022/10/10 16:47:57;;;;;;;9.50;5.93;;;;;;;;;;4922565;29;20054;-77
2022/10/10 16:50:23;;;;;;;10.48;5.80;;;;;;;;;;4922095;29;20030;-76
2022/10/10 16:52:49;;;;;;;10.23;5.85;;;;;;;;;;4939474;29;20489;-78
2022/10/10 16:55:16;;;;;;;14.82;7.03;;;;;;;;;;4923223;29;20024;-78
2022/10/10 16:57:42;;;;;;;12.95;7.85;;;;;;;;;;4922552;29;20378;-79
2022/10/10 17:00:09;;;;;;;13.57;8.25;;;;;;;;;;4925425;29;20039;-77
2022/10/10 17:02:37;;;;;;;15.23;7.97;;;;;;;;;;4945933;29;20024;-77
2022/10/10 17:05:03;;;;;;;11.35;6.50;;;;;;;;;;4931095;29;20428;-79
2022/10/10 17:07:29;;;;;;;13.48;6.10;;;;;;;;;;4931804;29;20484;-78
2022/10/10 17:09:56;;;;;;;9.27;5.60;;;;;;;;;;4947365;29;20032;-77
2022/10/10 17:12:22;;;;;;;12.30;5.82;;;;;;;;;;4930567;29;20035;-78
2022/10/10 17:14:48;;;;;;;11.88;5.40;;;;;;;;;;4933905;29;20036;-80
2022/10/10 17:17:16;;;;;;;17.05;6.45;;;;;;;;;;4922274;29;20496;-79
2022/10/10 17:19:42;;;;;;;10.77;6.20;;;;;;;;;;4913032;29;20075;-80
2022/10/10 17:22:08;;;;;;;17.73;8.07;;;;;;;;;;4936847;29;20106;-80
2022/10/10 17:24:35;;;;;;;18.85;9.02;;;;;;;;;;4922834;29;20106;-82
2022/10/10 17:27:01;;;;;;;20.02;10.82;;;;;;;;;;4922534;29;20114;-79
2022/10/10 17:29:27;;;;;;;16.45;9.20;;;;;;;;;;4918245;29;20031;-78
2022/10/10 17:31:54;;;;;;;16.75;10.75;;;;;;;;;;4927015;29;20042;-75
2022/10/10 17:34:20;;;;;;;19.98;9.20;;;;;;;;;;4935416;29;20024;-79
2022/10/10 17:36:46;;;;;;;11.65;7.10;;;;;;;;;;4914671;29;20036;-78
2022/10/10 17:39:12;;;;;;;9.88;6.65;;;;;;;;;;4927778;29;20021;-78
2022/10/10 17:41:38;;;;;;;14.27;6.28;;;;;;;;;;4928053;29;20032;-77
2022/10/10 17:44:09;;;;;;;14.00;7.10;;;;;;;;;;4912807;29;20035;-83